createdAt,value
2017-06-27T00:11:48.000Z,13.6
2017-06-27T00:28:30.000Z,13.6
2017-06-27T00:45:11.000Z,13.3
2017-06-27T01:01:52.000Z,13
2017-06-27T01:18:33.000Z,13
2017-06-27T01:35:14.000Z,13
2017-06-27T01:51:54.000Z,12.6
2017-06-27T02:08:36.000Z,12.6
2017-06-27T02:25:16.000Z,12.3
2017-06-27T02:41:57.000Z,12.3
2017-06-27T02:58:38.000Z,12
2017-06-27T03:15:18.000Z,12
2017-06-27T03:31:58.000Z,12.3
2017-06-27T03:48:39.000Z,12.3
2017-06-27T04:05:19.000Z,12.3
2017-06-27T04:21:59.000Z,12.3
2017-06-27T04:38:40.000Z,12.6
2017-06-27T04:55:21.000Z,13
2017-06-27T05:12:02.000Z,13.3
2017-06-27T05:28:43.000Z,13.9
2017-06-27T05:45:25.000Z,14.2
2017-06-27T06:02:08.000Z,14.6
2017-06-27T06:12:09.000Z,15.2
2017-06-27T06:28:51.000Z,15.5
2017-06-27T06:45:35.000Z,15.8
2017-06-27T06:52:16.000Z,16.5
2017-06-27T07:08:59.000Z,16.5
2017-06-27T07:25:44.000Z,16.8
2017-06-27T07:39:07.000Z,16.8
2017-06-27T07:52:30.000Z,17.4
2017-06-27T08:09:15.000Z,17.8
2017-06-27T08:22:39.000Z,18.4
2017-06-27T08:36:03.000Z,19
2017-06-27T08:52:50.000Z,19
2017-06-27T09:02:54.000Z,19.7
2017-06-27T09:19:41.000Z,19.7
2017-06-27T09:36:27.000Z,20
2017-06-27T09:53:15.000Z,19.7
2017-06-27T10:10:02.000Z,20
2017-06-27T10:26:49.000Z,20.3
2017-06-27T10:43:36.000Z,20.6
2017-06-27T11:00:25.000Z,21
2017-06-27T11:17:12.000Z,21
2017-06-27T11:34:01.000Z,21.3
2017-06-27T11:50:49.000Z,21.6
2017-06-27T12:07:38.000Z,21.9
2017-06-27T12:14:21.000Z,21.3
2017-06-27T12:31:10.000Z,21.3
2017-06-27T12:47:58.000Z,21.3
2017-06-27T13:04:47.000Z,21.6
2017-06-27T13:21:35.000Z,21.3
2017-06-27T13:38:23.000Z,21
2017-06-27T13:55:11.000Z,21
2017-06-27T14:11:59.000Z,21
2017-06-27T14:28:47.000Z,21.3
2017-06-27T14:45:35.000Z,21
2017-06-27T15:02:24.000Z,21
2017-06-27T15:19:11.000Z,20.6
2017-06-27T15:35:59.000Z,20.6
2017-06-27T15:52:46.000Z,20.3
2017-06-27T16:09:34.000Z,20
2017-06-27T16:26:21.000Z,20.3
2017-06-27T16:43:08.000Z,20
2017-06-27T16:59:55.000Z,19.7
2017-06-27T17:16:42.000Z,19.7
2017-06-27T17:33:28.000Z,19.7
2017-06-27T17:50:14.000Z,19.4
2017-06-27T18:07:02.000Z,19.4
2017-06-27T18:23:48.000Z,19.4
2017-06-27T18:40:34.000Z,19
2017-06-27T18:57:20.000Z,19
2017-06-27T19:14:07.000Z,18.7
2017-06-27T19:20:49.000Z,18.4
2017-06-27T19:34:13.000Z,18.1
2017-06-27T19:50:59.000Z,18.1
2017-06-27T20:07:44.000Z,18.1
2017-06-27T20:24:30.000Z,17.8
2017-06-27T20:41:14.000Z,17.8
2017-06-27T20:57:59.000Z,17.8
2017-06-27T21:14:45.000Z,17.8
2017-06-27T21:31:30.000Z,17.8
2017-06-27T21:48:15.000Z,17.8
2017-06-27T22:05:01.000Z,17.8
2017-06-27T22:21:46.000Z,17.8
2017-06-27T22:38:31.000Z,17.4
2017-06-27T22:55:16.000Z,17.4
2017-06-27T23:12:00.000Z,17.4
2017-06-27T23:28:46.000Z,17.4
2017-06-27T23:45:30.000Z,17.4
